Time;durP1;ratioP1;P1;durP2;ratioP2;P2;SDS_P1;SDS_P2;PMS_P1;PMS_P2;Temp;Humidity;BMP_temperature;BMP_pressure;BME280_temperature;BME280_humidity;BME280_pressure;Samples;Min_cycle;Max_cycle;Signal;HPM_P1;HPM_P2
2023/12/23 00:02:17;;;;;;;26.27;24.40;;;;;;;;;;5100646;28;20194;-78
2023/12/23 00:04:44;;;;;;;24.23;22.60;;;;;;;;;;5090825;28;20210;-78
2023/12/23 00:07:12;;;;;;;22.08;20.90;;;;;;;;;;5090435;28;20223;-79
2023/12/23 00:09:39;;;;;;;21.75;20.13;;;;;;;;;;5090923;28;20289;-78
2023/12/23 00:12:08;;;;;;;21.13;20.08;;;;;;;;;;5090280;28;20214;-77
2023/12/23 00:14:35;;;;;;;21.40;20.40;;;;;;;;;;5090460;28;20215;-78
2023/12/23 00:17:03;;;;;;;22.08;20.50;;;;;;;;;;5090661;28;20230;-78
2023/12/23 00:19:30;;;;;;;24.08;21.98;;;;;;;;;;5090363;28;20685;-78
2023/12/23 00:21:56;;;;;;;22.65;21.20;;;;;;;;;;5090278;28;20222;-78
2023/12/23 00:24:24;;;;;;;23.40;22.00;;;;;;;;;;5090732;28;20256;-78
2023/12/23 00:26:51;;;;;;;21.70;20.50;;;;;;;;;;5090668;28;20314;-77
2023/12/23 00:29:19;;;;;;;20.45;19.00;;;;;;;;;;5089995;28;20232;-78
2023/12/23 00:31:46;;;;;;;21.45;20.23;;;;;;;;;;5089265;28;20222;-78
2023/12/23 00:34:13;;;;;;;24.45;22.58;;;;;;;;;;5090152;28;20218;-77
2023/12/23 00:36:40;;;;;;;21.47;20.17;;;;;;;;;;5090432;28;20227;-77
2023/12/23 00:39:08;;;;;;;21.58;20.25;;;;;;;;;;5090365;28;20535;-78
2023/12/23 00:41:35;;;;;;;19.75;18.85;;;;;;;;;;5099581;28;20234;-78
2023/12/23 00:44:02;;;;;;;20.98;19.77;;;;;;;;;;5110660;28;20202;-77
2023/12/23 00:46:31;;;;;;;21.17;19.83;;;;;;;;;;5109699;28;20303;-78
2023/12/23 00:48:58;;;;;;;20.27;19.17;;;;;;;;;;5110501;28;20289;-78
2023/12/23 00:51:25;;;;;;;22.30;20.45;;;;;;;;;;5109899;28;20556;-78
2023/12/23 00:53:52;;;;;;;20.17;19.05;;;;;;;;;;5110430;28;20238;-77
2023/12/23 00:56:20;;;;;;;20.13;19.20;;;;;;;;;;5125586;27;20708;-78
2023/12/23 00:58:47;;;;;;;22.33;20.50;;;;;;;;;;5131012;28;20212;-76
2023/12/23 01:01:14;;;;;;;22.03;20.33;;;;;;;;;;5130529;28;20205;-77
2023/12/23 01:03:43;;;;;;;19.70;18.80;;;;;;;;;;5130508;28;20815;-77
2023/12/23 01:06:10;;;;;;;21.33;20.13;;;;;;;;;;5130871;28;20221;-77
2023/12/23 01:08:37;;;;;;;22.05;20.35;;;;;;;;;;5130907;28;20571;-77
2023/12/23 01:11:04;;;;;;;22.15;20.05;;;;;;;;;;5130042;28;20205;-77
2023/12/23 01:13:31;;;;;;;20.92;19.83;;;;;;;;;;5130672;27;20225;-78
2023/12/23 01:15:58;;;;;;;21.20;19.85;;;;;;;;;;5130773;28;20243;-77
2023/12/23 01:18:25;;;;;;;22.27;20.50;;;;;;;;;;5130806;28;20281;-77
2023/12/23 01:20:53;;;;;;;22.53;21.23;;;;;;;;;;5130269;28;20277;-78
2023/12/23 01:23:20;;;;;;;20.52;19.52;;;;;;;;;;5130844;28;20446;-78
2023/12/23 01:25:47;;;;;;;21.38;20.00;;;;;;;;;;5130607;28;20569;-77
2023/12/23 01:28:14;;;;;;;21.77;20.48;;;;;;;;;;5130687;28;20265;-78
2023/12/23 01:30:42;;;;;;;20.50;19.30;;;;;;;;;;5132770;27;20205;-77
2023/12/23 01:33:08;;;;;;;21.17;19.88;;;;;;;;;;5117067;27;20229;-77
2023/12/23 01:35:36;;;;;;;21.65;20.25;;;;;;;;;;5113489;28;20217;-78
2023/12/23 01:38:04;;;;;;;20.45;19.25;;;;;;;;;;5113585;27;20713;-77
2023/12/23 01:40:32;;;;;;;19.80;18.60;;;;;;;;;;5092882;28;20207;-78
2023/12/23 01:42:59;;;;;;;20.58;19.48;;;;;;;;;;5093447;28;20562;-78
2023/12/23 01:45:26;;;;;;;20.02;19.00;;;;;;;;;;5093378;28;20623;-78
2023/12/23 01:47:54;;;;;;;19.48;18.40;;;;;;;;;;5093126;28;20223;-77
2023/12/23 01:50:22;;;;;;;20.40;19.07;;;;;;;;;;5093473;28;20222;-78
2023/12/23 01:52:50;;;;;;;19.35;18.15;;;;;;;;;;5093061;28;20480;-77
2023/12/23 01:55:18;;;;;;;19.95;18.00;;;;;;;;;;5093311;28;20210;-78
2023/12/23 01:57:45;;;;;;;19.27;18.00;;;;;;;;;;5092986;28;20268;-77
2023/12/23 02:00:13;;;;;;;18.45;17.15;;;;;;;;;;5093323;28;20199;-77
2023/12/23 02:02:40;;;;;;;19.55;18.40;;;;;;;;;;5103578;28;20222;-78
2023/12/23 02:05:07;;;;;;;18.80;17.80;;;;;;;;;;5113510;28;20197;-77
2023/12/23 02:07:34;;;;;;;20.05;18.58;;;;;;;;;;5113267;28;20749;-78
2023/12/23 02:10:01;;;;;;;19.27;18.17;;;;;;;;;;5113154;28;20283;-78
2023/12/23 02:12:34;;;;;;;18.50;17.70;;;;;;;;;;5112070;28;20222;-78
2023/12/23 02:15:03;;;;;;;19.15;17.75;;;;;;;;;;5112778;28;20210;-78
2023/12/23 02:17:30;;;;;;;18.65;17.55;;;;;;;;;;5112811;28;20237;-77
2023/12/23 02:19:57;;;;;;;19.38;18.02;;;;;;;;;;5112977;28;20202;-77
2023/12/23 02:22:25;;;;;;;18.20;17.10;;;;;;;;;;5112187;28;20263;-77
2023/12/23 02:24:52;;;;;;;18.65;17.42;;;;;;;;;;5111922;28;20731;-77
2023/12/23 02:27:21;;;;;;;18.98;17.25;;;;;;;;;;5111918;28;20259;-78
2023/12/23 02:29:49;;;;;;;17.58;16.33;;;;;;;;;;5112032;28;20666;-78
2023/12/23 02:32:16;;;;;;;17.70;16.37;;;;;;;;;;5111250;28;20221;-78
2023/12/23 02:34:43;;;;;;;16.85;16.02;;;;;;;;;;5112609;28;20440;-77
2023/12/23 02:37:10;;;;;;;19.02;16.88;;;;;;;;;;5112091;28;20271;-78
2023/12/23 02:39:38;;;;;;;17.58;15.95;;;;;;;;;;5112759;28;20206;-77
2023/12/23 02:42:06;;;;;;;17.83;16.25;;;;;;;;;;5111738;28;20198;-77
2023/12/23 02:44:33;;;;;;;19.83;18.42;;;;;;;;;;5112656;28;20259;-77
2023/12/23 02:47:00;;;;;;;18.17;16.80;;;;;;;;;;5103535;28;20694;-77
2023/12/23 02:49:26;;;;;;;15.73;14.77;;;;;;;;;;5111007;27;20479;-79
2023/12/23 02:51:54;;;;;;;16.10;15.10;;;;;;;;;;5111963;28;20206;-78
2023/12/23 02:54:21;;;;;;;16.17;15.15;;;;;;;;;;5112631;28;20203;-77
2023/12/23 02:56:49;;;;;;;15.52;14.93;;;;;;;;;;5112526;28;20218;-76
2023/12/23 02:59:16;;;;;;;16.80;15.88;;;;;;;;;;5112744;28;20274;-77
2023/12/23 03:01:43;;;;;;;15.55;14.85;;;;;;;;;;5111758;28;20267;-77
2023/12/23 03:04:10;;;;;;;15.23;14.43;;;;;;;;;;5112605;28;20266;-78
2023/12/23 03:06:37;;;;;;;15.00;14.30;;;;;;;;;;5112409;28;20230;-77
2023/12/23 03:09:04;;;;;;;15.27;14.57;;;;;;;;;;5112484;28;21218;-78
2023/12/23 03:11:31;;;;;;;16.73;15.50;;;;;;;;;;5111816;28;20206;-78
2023/12/23 03:13:58;;;;;;;15.65;14.38;;;;;;;;;;5111252;27;20544;-79
2023/12/23 03:16:29;;;;;;;15.93;14.93;;;;;;;;;;5112111;28;20354;-77
2023/12/23 03:18:56;;;;;;;15.63;14.65;;;;;;;;;;5111822;28;20305;-78
2023/12/23 03:21:23;;;;;;;14.30;13.60;;;;;;;;;;5111587;28;20239;-77
2023/12/23 03:23:50;;;;;;;15.60;14.70;;;;;;;;;;5112351;28;20206;-77
2023/12/23 03:26:17;;;;;;;16.10;15.20;;;;;;;;;;5111344;27;20233;-78
2023/12/23 03:28:44;;;;;;;16.25;15.13;;;;;;;;;;5112185;28;20432;-78
2023/12/23 03:31:12;;;;;;;15.13;14.32;;;;;;;;;;5111705;28;20248;-76
2023/12/23 03:33:41;;;;;;;15.50;14.70;;;;;;;;;;5111714;28;20258;-77
2023/12/23 03:36:08;;;;;;;16.10;14.98;;;;;;;;;;5111767;28;20221;-77
2023/12/23 03:38:35;;;;;;;15.80;15.00;;;;;;;;;;5111530;27;20677;-78
2023/12/23 03:41:02;;;;;;;16.33;15.25;;;;;;;;;;5111390;28;20543;-77
2023/12/23 03:43:29;;;;;;;16.60;15.32;;;;;;;;;;5111761;28;20206;-78
2023/12/23 03:45:56;;;;;;;17.73;16.67;;;;;;;;;;5111434;28;20206;-77
2023/12/23 03:48:24;;;;;;;21.10;19.57;;;;;;;;;;5110700;27;20214;-78
2023/12/23 03:50:51;;;;;;;21.95;20.35;;;;;;;;;;5111317;28;20501;-77
2023/12/23 03:53:18;;;;;;;22.43;21.13;;;;;;;;;;5110539;28;20222;-77
2023/12/23 03:55:45;;;;;;;23.70;22.25;;;;;;;;;;5111279;28;20448;-77
2023/12/23 03:58:12;;;;;;;23.25;21.88;;;;;;;;;;5110583;27;20627;-78
2023/12/23 04:00:39;;;;;;;24.95;23.05;;;;;;;;;;5110512;28;20662;-78
2023/12/23 04:03:06;;;;;;;24.15;22.92;;;;;;;;;;5110702;28;20662;-79
2023/12/23 04:05:34;;;;;;;25.83;24.42;;;;;;;;;;5111446;28;20207;-78
2023/12/23 04:08:02;;;;;;;26.40;25.13;;;;;;;;;;5111103;28;20271;-78
2023/12/23 04:10:29;;;;;;;25.38;24.08;;;;;;;;;;5110938;28;20227;-78
2023/12/23 04:12:56;;;;;;;26.20;24.58;;;;;;;;;;5110787;28;20833;-78
2023/12/23 04:15:23;;;;;;;29.33;27.73;;;;;;;;;;5110631;28;20670;-77
2023/12/23 04:17:50;;;;;;;29.70;28.08;;;;;;;;;;5110789;28;20635;-78
2023/12/23 04:20:17;;;;;;;29.90;28.02;;;;;;;;;;5111122;28;20214;-78
2023/12/23 04:22:48;;;;;;;29.77;28.27;;;;;;;;;;5110276;28;20202;-78
2023/12/23 04:25:15;;;;;;;31.50;29.25;;;;;;;;;;5111118;28;20213;-77
2023/12/23 04:27:42;;;;;;;31.45;29.77;;;;;;;;;;5110964;28;20230;-78
2023/12/23 04:30:09;;;;;;;31.85;29.88;;;;;;;;;;5111118;28;20198;-78
2023/12/23 04:32:36;;;;;;;32.40;30.80;;;;;;;;;;5110116;28;20690;-77
2023/12/23 04:35:04;;;;;;;33.13;31.40;;;;;;;;;;5110898;28;20739;-77
2023/12/23 04:37:31;;;;;;;31.10;29.35;;;;;;;;;;5110940;28;20226;-78
2023/12/23 04:39:59;;;;;;;34.00;31.52;;;;;;;;;;5111173;28;20210;-78
2023/12/23 04:42:26;;;;;;;37.45;34.88;;;;;;;;;;5110768;28;20206;-79
2023/12/23 04:44:53;;;;;;;38.17;36.45;;;;;;;;;;5110208;27;20212;-78
2023/12/23 04:47:20;;;;;;;39.90;37.22;;;;;;;;;;5110604;28;20249;-79
2023/12/23 04:49:47;;;;;;;36.40;34.50;;;;;;;;;;5110607;28;20268;-78
2023/12/23 04:52:14;;;;;;;37.63;35.92;;;;;;;;;;5110316;28;20263;-78
2023/12/23 04:54:41;;;;;;;59.78;56.92;;;;;;;;;;5110041;27;20222;-79
2023/12/23 04:57:10;;;;;;;75.82;72.00;;;;;;;;;;5110624;28;20222;-79
2023/12/23 04:59:37;;;;;;;71.53;68.10;;;;;;;;;;5110804;28;20206;-79
2023/12/23 05:02:04;;;;;;;79.57;75.30;;;;;;;;;;5110391;28;20202;-77
2023/12/23 05:04:31;;;;;;;79.28;75.00;;;;;;;;;;5111335;27;20440;-78
2023/12/23 05:06:58;;;;;;;78.65;74.35;;;;;;;;;;5114734;28;20225;-77
2023/12/23 05:09:25;;;;;;;74.95;70.43;;;;;;;;;;5114947;28;20963;-77
2023/12/23 05:11:52;;;;;;;74.60;70.90;;;;;;;;;;5114614;28;20202;-79
2023/12/23 05:14:21;;;;;;;81.72;77.22;;;;;;;;;;5115218;28;20302;-79
2023/12/23 05:16:47;;;;;;;78.57;74.43;;;;;;;;;;5114738;28;20306;-78
2023/12/23 05:19:14;;;;;;;85.20;80.88;;;;;;;;;;5115028;28;20567;-80
2023/12/23 05:21:43;;;;;;;81.43;77.22;;;;;;;;;;5114481;28;20252;-78
2023/12/23 05:24:10;;;;;;;81.05;77.05;;;;;;;;;;5114723;28;20202;-79
2023/12/23 05:26:37;;;;;;;83.55;79.35;;;;;;;;;;5114391;28;20766;-79
2023/12/23 05:29:05;;;;;;;88.22;83.35;;;;;;;;;;5114518;28;20674;-79
2023/12/23 05:31:34;;;;;;;83.63;79.03;;;;;;;;;;5114107;28;20206;-79
2023/12/23 05:34:01;;;;;;;83.20;78.47;;;;;;;;;;5113829;28;20226;-78
2023/12/23 05:36:28;;;;;;;88.53;83.78;;;;;;;;;;5113403;28;20786;-78
2023/12/23 05:38:55;;;;;;;85.72;81.60;;;;;;;;;;5113661;28;20205;-79
2023/12/23 05:41:22;;;;;;;84.82;80.82;;;;;;;;;;5112202;27;20214;-78
2023/12/23 05:43:49;;;;;;;87.93;83.15;;;;;;;;;;5113509;28;20205;-78
2023/12/23 05:46:16;;;;;;;86.63;82.00;;;;;;;;;;5113686;28;20270;-78
2023/12/23 05:48:44;;;;;;;85.55;81.03;;;;;;;;;;5114154;28;20255;-78
2023/12/23 05:51:12;;;;;;;83.72;79.43;;;;;;;;;;5113773;28;20206;-78
2023/12/23 05:53:39;;;;;;;89.83;85.47;;;;;;;;;;5114336;28;20222;-79
2023/12/23 05:56:06;;;;;;;83.97;79.68;;;;;;;;;;5114285;28;20436;-79
2023/12/23 05:58:33;;;;;;;88.63;84.30;;;;;;;;;;5114395;28;20210;-78
2023/12/23 06:01:01;;;;;;;90.90;86.22;;;;;;;;;;5113940;28;20470;-79
2023/12/23 06:03:28;;;;;;;89.07;84.40;;;;;;;;;;5114440;28;20270;-78
2023/12/23 06:05:56;;;;;;;91.13;86.63;;;;;;;;;;5114253;28;20259;-78
2023/12/23 06:08:23;;;;;;;89.60;84.93;;;;;;;;;;5114076;28;20251;-78
2023/12/23 06:10:50;;;;;;;84.68;79.68;;;;;;;;;;5133676;27;20496;-79
2023/12/23 06:13:17;;;;;;;93.50;88.57;;;;;;;;;;5134738;27;20225;-79
2023/12/23 06:15:44;;;;;;;95.35;90.03;;;;;;;;;;5134522;27;20185;-79
2023/12/23 06:18:11;;;;;;;90.53;85.72;;;;;;;;;;5133745;27;20201;-79
2023/12/23 06:20:39;;;;;;;86.55;82.07;;;;;;;;;;5132671;27;20752;-79
2023/12/23 06:23:07;;;;;;;89.40;85.10;;;;;;;;;;5114047;28;20241;-79
2023/12/23 06:25:34;;;;;;;82.32;77.97;;;;;;;;;;5112898;28;20232;-78
2023/12/23 06:28:01;;;;;;;89.97;84.32;;;;;;;;;;5112729;28;20271;-78
2023/12/23 06:30:28;;;;;;;85.28;80.45;;;;;;;;;;5112806;28;20206;-80
2023/12/23 06:32:55;;;;;;;89.25;83.95;;;;;;;;;;5112900;28;20206;-78
2023/12/23 06:35:22;;;;;;;88.22;83.40;;;;;;;;;;5113734;28;20267;-78
2023/12/23 06:37:49;;;;;;;88.00;83.22;;;;;;;;;;5113448;28;20710;-79
2023/12/23 06:40:17;;;;;;;88.35;83.55;;;;;;;;;;5113948;28;20541;-79
2023/12/23 06:42:44;;;;;;;94.97;89.78;;;;;;;;;;5113014;28;20202;-78
2023/12/23 06:45:14;;;;;;;92.85;87.85;;;;;;;;;;5114025;28;20198;-79
2023/12/23 06:47:41;;;;;;;90.18;85.30;;;;;;;;;;5113605;28;20261;-79
2023/12/23 06:50:08;;;;;;;112.80;105.35;;;;;;;;;;5113961;27;20206;-79
2023/12/23 06:52:35;;;;;;;96.40;90.32;;;;;;;;;;5112508;28;20214;-79
2023/12/23 06:55:02;;;;;;;89.78;84.28;;;;;;;;;;5112153;28;20791;-79
2023/12/23 06:57:30;;;;;;;89.32;83.97;;;;;;;;;;5113210;28;20390;-78
2023/12/23 06:59:58;;;;;;;84.80;79.93;;;;;;;;;;5108905;28;20609;-80
2023/12/23 07:02:25;;;;;;;91.78;86.85;;;;;;;;;;5097959;28;20517;-78
2023/12/23 07:04:52;;;;;;;93.88;88.80;;;;;;;;;;5112694;28;20535;-79
2023/12/23 07:07:19;;;;;;;94.10;89.22;;;;;;;;;;5111740;28;20229;-79
2023/12/23 07:09:46;;;;;;;92.93;88.07;;;;;;;;;;5113501;28;20658;-77
2023/12/23 07:12:13;;;;;;;88.77;83.87;;;;;;;;;;5120262;27;20443;-78
2023/12/23 07:14:42;;;;;;;82.93;78.53;;;;;;;;;;5134959;27;20483;-79
2023/12/23 07:17:09;;;;;;;81.88;76.78;;;;;;;;;;5135193;27;20221;-79
2023/12/23 07:19:36;;;;;;;79.18;74.20;;;;;;;;;;5134999;27;20209;-80
2023/12/23 07:22:04;;;;;;;71.90;67.93;;;;;;;;;;5120512;27;20838;-79
2023/12/23 07:24:31;;;;;;;74.35;70.10;;;;;;;;;;5115240;28;20209;-79
2023/12/23 07:26:58;;;;;;;68.57;64.28;;;;;;;;;;5102834;28;20226;-78
2023/12/23 07:29:25;;;;;;;71.90;66.63;;;;;;;;;;5098797;28;20206;-79
2023/12/23 07:31:54;;;;;;;73.47;69.27;;;;;;;;;;5119059;27;20209;-78
2023/12/23 07:34:20;;;;;;;72.73;68.73;;;;;;;;;;5126762;27;20486;-79
2023/12/23 07:36:47;;;;;;;71.72;67.47;;;;;;;;;;5134783;27;20483;-76
2023/12/23 07:39:15;;;;;;;69.57;65.77;;;;;;;;;;5136177;27;20262;-80
2023/12/23 07:41:42;;;;;;;68.67;64.47;;;;;;;;;;5134982;27;20447;-80
2023/12/23 07:44:09;;;;;;;71.60;67.70;;;;;;;;;;5134788;27;20440;-79
2023/12/23 07:46:35;;;;;;;73.07;68.90;;;;;;;;;;5134846;27;20471;-80
2023/12/23 07:49:04;;;;;;;79.00;74.50;;;;;;;;;;5134580;27;20455;-78
2023/12/23 07:51:31;;;;;;;74.17;69.97;;;;;;;;;;5132909;27;20443;-79
2023/12/23 07:53:58;;;;;;;54.93;51.20;;;;;;;;;;5133316;27;20510;-78
2023/12/23 07:56:25;;;;;;;52.93;49.73;;;;;;;;;;5132700;27;20467;-78
2023/12/23 07:58:52;;;;;;;53.70;50.20;;;;;;;;;;5132350;27;20951;-79
2023/12/23 08:01:20;;;;;;;50.27;46.97;;;;;;;;;;5132304;27;20442;-79
2023/12/23 08:03:47;;;;;;;53.00;49.77;;;;;;;;;;5132397;27;20485;-80
2023/12/23 08:06:16;;;;;;;48.70;45.57;;;;;;;;;;5135558;27;20475;-83
2023/12/23 08:08:43;;;;;;;47.83;45.03;;;;;;;;;;5120929;27;20947;-83
2023/12/23 08:11:10;;;;;;;47.70;44.53;;;;;;;;;;5115464;28;20448;-82
2023/12/23 08:13:37;;;;;;;48.77;45.27;;;;;;;;;;5115817;28;20464;-82
2023/12/23 08:16:04;;;;;;;44.93;41.60;;;;;;;;;;5115055;28;20452;-82
2023/12/23 08:18:31;;;;;;;45.20;42.30;;;;;;;;;;5116136;28;20448;-84
2023/12/23 08:20:58;;;;;;;46.17;43.20;;;;;;;;;;5115267;28;20505;-82
2023/12/23 08:23:27;;;;;;;40.93;38.27;;;;;;;;;;5116124;28;20452;-81
2023/12/23 08:25:54;;;;;;;40.60;38.10;;;;;;;;;;5116127;28;20989;-82
2023/12/23 08:28:20;;;;;;;40.73;37.93;;;;;;;;;;5115623;28;20475;-81
2023/12/23 08:30:47;;;;;;;38.03;35.43;;;;;;;;;;5115955;28;20452;-81
2023/12/23 08:33:14;;;;;;;33.83;31.63;;;;;;;;;;5116239;28;20440;-81
2023/12/23 08:35:41;;;;;;;32.30;30.20;;;;;;;;;;5115803;28;20517;-82
2023/12/23 08:38:08;;;;;;;33.60;31.40;;;;;;;;;;5116070;28;20471;-81
2023/12/23 08:40:37;;;;;;;33.10;30.60;;;;;;;;;;5115052;28;20455;-81
2023/12/23 08:43:04;;;;;;;32.63;30.20;;;;;;;;;;5115856;28;20444;-81
2023/12/23 08:45:31;;;;;;;34.03;31.73;;;;;;;;;;5116466;28;20448;-83
2023/12/23 08:47:58;;;;;;;30.67;28.77;;;;;;;;;;5115989;28;21056;-81
2023/12/23 08:50:25;;;;;;;30.27;28.17;;;;;;;;;;5115905;28;20943;-81
2023/12/23 08:52:52;;;;;;;30.90;28.70;;;;;;;;;;5115307;28;20468;-81
2023/12/23 08:55:20;;;;;;;33.93;31.30;;;;;;;;;;5115775;28;20832;-82
2023/12/23 08:57:48;;;;;;;31.83;29.20;;;;;;;;;;5116048;28;20516;-81
2023/12/23 09:00:16;;;;;;;77.57;34.97;;;;;;;;;;5116237;28;20216;-79
2023/12/23 09:02:43;;;;;;;34.20;31.23;;;;;;;;;;5114791;28;20418;-81
2023/12/23 09:05:10;;;;;;;30.13;28.23;;;;;;;;;;5113593;28;20895;-79
2023/12/23 09:07:37;;;;;;;31.57;29.03;;;;;;;;;;5117822;28;20882;-81
2023/12/23 09:10:04;;;;;;;31.00;28.80;;;;;;;;;;5114841;28;20481;-81
2023/12/23 09:12:33;;;;;;;34.43;32.33;;;;;;;;;;5126801;28;20496;-81
2023/12/23 09:15:01;;;;;;;33.67;31.33;;;;;;;;;;5134980;28;20493;-81
2023/12/23 09:17:28;;;;;;;31.77;29.77;;;;;;;;;;5133734;27;20532;-81
2023/12/23 09:19:55;;;;;;;30.00;28.20;;;;;;;;;;5135106;28;20500;-79
2023/12/23 09:22:22;;;;;;;30.33;28.53;;;;;;;;;;5129017;28;20514;-79
2023/12/23 09:24:51;;;;;;;31.30;28.93;;;;;;;;;;5131762;28;20492;-79
2023/12/23 09:27:18;;;;;;;31.67;29.47;;;;;;;;;;5131192;27;20489;-79
2023/12/23 09:29:46;;;;;;;32.00;29.90;;;;;;;;;;5131934;28;21111;-80
2023/12/23 09:32:14;;;;;;;42.13;33.37;;;;;;;;;;5127836;28;20455;-82
2023/12/23 09:34:41;;;;;;;31.30;29.50;;;;;;;;;;5114561;28;20536;-80
2023/12/23 09:37:08;;;;;;;29.70;27.80;;;;;;;;;;5111285;28;20521;-78
2023/12/23 09:39:35;;;;;;;27.60;26.00;;;;;;;;;;5110542;28;20517;-78
2023/12/23 09:42:03;;;;;;;27.90;26.30;;;;;;;;;;5110780;28;20444;-81
2023/12/23 09:44:30;;;;;;;28.30;26.50;;;;;;;;;;5114227;28;20452;-87
2023/12/23 09:46:57;;;;;;;28.13;26.33;;;;;;;;;;5105722;28;20472;-85
2023/12/23 09:49:26;;;;;;;28.33;26.47;;;;;;;;;;5114465;28;20513;-84
2023/12/23 09:51:55;;;;;;;30.53;28.63;;;;;;;;;;5113859;27;20455;-87
2023/12/23 09:54:24;;;;;;;29.20;27.60;;;;;;;;;;5109500;28;20499;-90
2023/12/23 09:56:51;;;;;;;29.53;27.63;;;;;;;;;;5118466;28;20467;-82
2023/12/23 09:59:18;;;;;;;29.77;28.00;;;;;;;;;;5138713;27;20467;-84
2023/12/23 10:01:46;;;;;;;29.13;27.10;;;;;;;;;;5141772;27;20454;-82
2023/12/23 10:04:14;;;;;;;32.47;29.67;;;;;;;;;;5141176;27;20434;-84
2023/12/23 10:09:12;;;;;;;31.10;28.90;;;;;;;;;;5097691;28;20857;-82
2023/12/23 10:11:39;;;;;;;32.20;30.50;;;;;;;;;;5098197;28;20457;-87
2023/12/23 10:14:06;;;;;;;29.37;27.77;;;;;;;;;;5098395;28;20468;-81
2023/12/23 10:16:33;;;;;;;30.13;28.37;;;;;;;;;;5098501;28;21033;-84
2023/12/23 10:19:00;;;;;;;33.73;31.20;;;;;;;;;;5098721;28;20808;-83
2023/12/23 10:21:27;;;;;;;30.70;28.80;;;;;;;;;;5097110;28;20517;-85
2023/12/23 10:23:54;;;;;;;30.17;27.97;;;;;;;;;;5096496;28;20522;-88
2023/12/23 10:26:22;;;;;;;29.77;27.70;;;;;;;;;;5096325;28;20461;-88
2023/12/23 10:28:51;;;;;;;28.57;26.23;;;;;;;;;;5096616;28;20506;-88
2023/12/23 10:31:18;;;;;;;28.50;26.70;;;;;;;;;;5096010;28;20936;-88
2023/12/23 10:33:47;;;;;;;29.30;27.40;;;;;;;;;;5096747;28;20479;-88
2023/12/23 10:36:14;;;;;;;27.63;25.90;;;;;;;;;;5096369;28;20492;-88
2023/12/23 10:38:43;;;;;;;28.13;26.23;;;;;;;;;;5096680;28;20448;-88
2023/12/23 10:41:13;;;;;;;28.20;26.13;;;;;;;;;;5095424;28;20448;-88
2023/12/23 10:43:42;;;;;;;27.40;25.63;;;;;;;;;;5096504;28;20441;-88
2023/12/23 10:46:09;;;;;;;28.17;25.97;;;;;;;;;;5097035;28;20456;-88
2023/12/23 10:48:38;;;;;;;29.23;27.33;;;;;;;;;;5096253;28;20452;-88
2023/12/23 10:51:05;;;;;;;27.27;25.57;;;;;;;;;;5095556;28;20408;-88
2023/12/23 10:53:32;;;;;;;28.97;27.07;;;;;;;;;;5093810;28;20440;-88
2023/12/23 10:55:59;;;;;;;28.73;27.03;;;;;;;;;;5076007;28;20989;-88
2023/12/23 10:58:26;;;;;;;29.50;26.77;;;;;;;;;;5076050;28;20450;-87
2023/12/23 11:00:55;;;;;;;34.00;31.10;;;;;;;;;;5075494;28;20441;-88
2023/12/23 11:03:23;;;;;;;28.33;26.27;;;;;;;;;;5075639;28;20509;-90
2023/12/23 11:05:50;;;;;;;28.13;26.03;;;;;;;;;;5075056;28;20463;-92
2023/12/23 11:08:21;;;;;;;28.53;26.43;;;;;;;;;;5075147;28;20449;-91
2023/12/23 11:10:49;;;;;;;30.70;28.57;;;;;;;;;;5075478;28;20503;-91
2023/12/23 11:13:16;;;;;;;27.00;25.10;;;;;;;;;;5075436;28;20460;-91
2023/12/23 11:15:43;;;;;;;29.07;27.10;;;;;;;;;;5074355;28;20858;-91
2023/12/23 11:18:12;;;;;;;27.33;25.53;;;;;;;;;;5074685;28;20473;-91
2023/12/23 11:20:47;;;;;;;29.20;27.33;;;;;;;;;;5075439;28;20437;-90
2023/12/23 11:23:33;;;;;;;29.97;27.90;;;;;;;;;;5075281;28;20487;-91
2023/12/23 11:26:00;;;;;;;28.23;26.63;;;;;;;;;;5077067;28;20490;-91
2023/12/23 11:28:28;;;;;;;27.53;25.93;;;;;;;;;;5074514;28;20441;-91
2023/12/23 11:30:55;;;;;;;25.57;23.47;;;;;;;;;;5075097;28;20498;-88
2023/12/23 11:33:24;;;;;;;25.33;23.63;;;;;;;;;;5087474;28;20442;-90
2023/12/23 11:35:52;;;;;;;26.50;24.50;;;;;;;;;;5074505;28;21074;-90
2023/12/23 11:38:21;;;;;;;27.57;25.77;;;;;;;;;;5074031;28;20976;-90
2023/12/23 11:40:48;;;;;;;29.10;27.30;;;;;;;;;;5074419;28;21336;-90
2023/12/23 11:43:16;;;;;;;27.33;25.40;;;;;;;;;;5074560;28;20533;-90
2023/12/23 11:45:44;;;;;;;28.57;26.77;;;;;;;;;;5075182;28;20495;-89
2023/12/23 11:48:11;;;;;;;28.23;26.27;;;;;;;;;;5074527;28;20457;-90
2023/12/23 11:50:40;;;;;;;28.07;26.57;;;;;;;;;;5074271;28;20508;-91
2023/12/23 11:53:07;;;;;;;26.77;25.07;;;;;;;;;;5074392;28;20445;-90
2023/12/23 11:55:36;;;;;;;26.77;25.20;;;;;;;;;;5074178;28;20478;-91
2023/12/23 11:58:03;;;;;;;27.90;26.10;;;;;;;;;;5085311;28;21018;-90
2023/12/23 12:00:36;;;;;;;28.50;26.47;;;;;;;;;;5094071;28;20442;-90
2023/12/23 12:03:04;;;;;;;29.20;27.40;;;;;;;;;;5094693;28;20537;-90
2023/12/23 12:05:32;;;;;;;28.13;26.60;;;;;;;;;;5094519;28;20438;-91
2023/12/23 12:08:00;;;;;;;27.57;25.67;;;;;;;;;;5093197;28;20541;-91
2023/12/23 12:10:27;;;;;;;29.40;27.70;;;;;;;;;;5084326;28;20423;-91
2023/12/23 12:12:54;;;;;;;27.33;25.60;;;;;;;;;;5088901;28;20978;-91
2023/12/23 12:15:22;;;;;;;29.03;27.20;;;;;;;;;;5087011;28;20496;-91
2023/12/23 12:17:49;;;;;;;25.73;24.30;;;;;;;;;;5088921;28;20821;-89
2023/12/23 12:20:16;;;;;;;28.03;26.43;;;;;;;;;;5088924;28;20955;-85
2023/12/23 12:22:45;;;;;;;27.60;26.00;;;;;;;;;;5091759;28;20424;-86
2023/12/23 12:25:18;;;;;;;26.37;24.67;;;;;;;;;;5089107;28;20438;-91
2023/12/23 12:27:46;;;;;;;28.13;26.33;;;;;;;;;;5083109;28;20472;-82
2023/12/23 12:30:13;;;;;;;32.00;29.63;;;;;;;;;;5088344;28;20461;-82
2023/12/23 12:32:45;;;;;;;37.00;33.73;;;;;;;;;;5080005;28;20866;-80
2023/12/23 12:35:12;;;;;;;28.87;26.77;;;;;;;;;;5083603;28;20562;-82
2023/12/23 12:37:39;;;;;;;27.23;25.53;;;;;;;;;;5087641;28;20466;-79
2023/12/23 12:40:07;;;;;;;26.97;25.47;;;;;;;;;;5084728;28;20442;-81
2023/12/23 12:42:38;;;;;;;30.17;28.17;;;;;;;;;;5083770;28;20832;-83
2023/12/23 12:45:05;;;;;;;28.60;26.90;;;;;;;;;;5090619;28;20433;-81
2023/12/23 12:47:32;;;;;;;25.93;24.43;;;;;;;;;;5086342;28;20457;-81
2023/12/23 12:50:01;;;;;;;27.70;25.90;;;;;;;;;;5084848;28;20519;-79
2023/12/23 12:52:29;;;;;;;26.33;24.53;;;;;;;;;;5085855;28;21182;-78
2023/12/23 12:54:58;;;;;;;27.50;25.57;;;;;;;;;;5084207;28;20453;-86
2023/12/23 12:57:24;;;;;;;27.37;25.43;;;;;;;;;;5097264;28;20465;-87
2023/12/23 12:59:53;;;;;;;27.60;25.80;;;;;;;;;;5098612;28;20453;-87
2023/12/23 13:02:20;;;;;;;27.27;25.37;;;;;;;;;;5097111;28;20434;-87
2023/12/23 13:04:47;;;;;;;28.03;26.23;;;;;;;;;;5093665;28;20996;-82
2023/12/23 13:07:13;;;;;;;27.00;25.40;;;;;;;;;;5098195;28;20439;-83
2023/12/23 13:09:40;;;;;;;29.17;27.27;;;;;;;;;;5088204;28;20461;-82
2023/12/23 13:12:08;;;;;;;27.43;25.83;;;;;;;;;;5095888;28;20419;-80
2023/12/23 13:14:35;;;;;;;29.60;27.40;;;;;;;;;;5093791;28;20440;-79
2023/12/23 13:17:04;;;;;;;27.60;26.00;;;;;;;;;;5091003;28;20465;-81
2023/12/23 13:19:31;;;;;;;27.00;25.50;;;;;;;;;;5085410;28;20478;-82
2023/12/23 13:21:58;;;;;;;29.47;27.70;;;;;;;;;;5092672;28;20528;-81
2023/12/23 13:24:25;;;;;;;28.70;27.10;;;;;;;;;;5092143;28;20426;-84
2023/12/23 13:26:53;;;;;;;29.50;27.67;;;;;;;;;;5093093;28;20506;-84
2023/12/23 13:29:21;;;;;;;31.30;29.60;;;;;;;;;;5093958;28;20487;-81
2023/12/23 13:31:48;;;;;;;29.40;27.60;;;;;;;;;;5094860;28;20465;-83
2023/12/23 13:34:16;;;;;;;27.37;25.77;;;;;;;;;;5090802;28;20464;-82
2023/12/23 13:36:42;;;;;;;31.37;29.10;;;;;;;;;;5091425;28;20538;-80
2023/12/23 13:39:10;;;;;;;28.17;26.27;;;;;;;;;;5093769;28;20470;-82
2023/12/23 13:41:37;;;;;;;28.13;26.40;;;;;;;;;;5083607;28;20556;-82
2023/12/23 13:44:04;;;;;;;28.10;26.30;;;;;;;;;;5087471;28;20427;-84
2023/12/23 13:46:31;;;;;;;27.70;26.00;;;;;;;;;;5100201;28;20510;-82
2023/12/23 13:48:58;;;;;;;29.17;27.47;;;;;;;;;;5100800;28;20467;-83
2023/12/23 13:51:26;;;;;;;29.57;27.70;;;;;;;;;;5082449;28;20473;-83
2023/12/23 13:53:54;;;;;;;30.60;28.80;;;;;;;;;;5092203;28;20441;-76
2023/12/23 13:56:21;;;;;;;31.53;29.63;;;;;;;;;;5088533;28;20460;-78
2023/12/23 13:58:48;;;;;;;31.83;29.47;;;;;;;;;;5094271;28;20468;-78
2023/12/23 14:01:15;;;;;;;31.50;29.40;;;;;;;;;;5094954;28;20472;-78
2023/12/23 14:03:43;;;;;;;32.13;29.80;;;;;;;;;;5096249;28;20480;-79
2023/12/23 14:06:11;;;;;;;31.30;29.33;;;;;;;;;;5095318;28;20812;-77
2023/12/23 14:08:39;;;;;;;30.63;28.77;;;;;;;;;;5094849;28;20460;-78
2023/12/23 14:11:06;;;;;;;31.07;29.07;;;;;;;;;;5094547;28;20423;-78
2023/12/23 14:13:33;;;;;;;31.37;29.57;;;;;;;;;;5094745;28;20929;-78
2023/12/23 14:16:00;;;;;;;29.43;27.63;;;;;;;;;;5094537;28;20500;-78
2023/12/23 14:18:27;;;;;;;33.40;30.67;;;;;;;;;;5093831;28;20424;-76
2023/12/23 14:20:54;;;;;;;31.10;29.20;;;;;;;;;;5092283;28;20513;-77